sensor_id;sensor_type;location;lat;lon;timestamp;temperature;humidity
21627;DHT22;10975;47.872;12.972;2023-04-25T00:00:50;7.90;99.90
21627;DHT22;10975;47.872;12.972;2023-04-25T00:03:19;8.00;99.90
21627;DHT22;10975;47.872;12.972;2023-04-25T00:05:47;8.00;99.90
21627;DHT22;10975;47.872;12.972;2023-04-25T00:08:15;8.00;99.90
21627;DHT22;10975;47.872;12.972;2023-04-25T00:10:42;8.00;99.90
21627;DHT22;10975;47.872;12.972;2023-04-25T00:13:09;8.00;99.90
21627;DHT22;10975;47.872;12.972;2023-04-25T00:15:37;7.90;99.90
21627;DHT22;10975;47.872;12.972;2023-04-25T00:18:05;7.90;99.90
21627;DHT22;10975;47.872;12.972;2023-04-25T00:20:32;7.80;99.90
21627;DHT22;10975;47.872;12.972;2023-04-25T00:22:59;7.80;99.90
21627;DHT22;10975;47.872;12.972;2023-04-25T00:25:26;7.80;99.90
21627;DHT22;10975;47.872;12.972;2023-04-25T00:27:52;7.70;99.90
21627;DHT22;10975;47.872;12.972;2023-04-25T00:30:19;7.60;99.90
21627;DHT22;10975;47.872;12.972;2023-04-25T00:32:46;7.60;99.90
21627;DHT22;10975;47.872;12.972;2023-04-25T00:35:13;7.50;99.90
21627;DHT22;10975;47.872;12.972;2023-04-25T00:37:39;7.50;99.90
21627;DHT22;10975;47.872;12.972;2023-04-25T00:40:07;7.60;99.90
21627;DHT22;10975;47.872;12.972;2023-04-25T00:42:34;7.60;99.90
21627;DHT22;10975;47.872;12.972;2023-04-25T00:45:02;7.70;99.90
21627;DHT22;10975;47.872;12.972;2023-04-25T00:47:30;7.70;99.90
21627;DHT22;10975;47.872;12.972;2023-04-25T00:49:57;7.70;99.90
21627;DHT22;10975;47.872;12.972;2023-04-25T00:52:24;7.70;99.90
21627;DHT22;10975;47.872;12.972;2023-04-25T00:54:51;7.70;99.90
21627;DHT22;10975;47.872;12.972;2023-04-25T00:57:17;7.70;99.90
21627;DHT22;10975;47.872;12.972;2023-04-25T00:59:45;7.60;99.90
21627;DHT22;10975;47.872;12.972;2023-04-25T01:02:12;7.60;99.90
21627;DHT22;10975;47.872;12.972;2023-04-25T01:04:39;7.70;99.90
21627;DHT22;10975;47.872;12.972;2023-04-25T01:07:06;7.70;99.90
21627;DHT22;10975;47.872;12.972;2023-04-25T01:09:33;7.70;99.90
21627;DHT22;10975;47.872;12.972;2023-04-25T01:12:00;7.70;99.90
21627;DHT22;10975;47.872;12.972;2023-04-25T01:14:27;7.80;99.90
21627;DHT22;10975;47.872;12.972;2023-04-25T01:16:54;7.80;99.90
21627;DHT22;10975;47.872;12.972;2023-04-25T01:19:21;7.80;99.90
21627;DHT22;10975;47.872;12.972;2023-04-25T01:21:48;7.90;99.90
21627;DHT22;10975;47.872;12.972;2023-04-25T01:24:14;7.90;99.90
21627;DHT22;10975;47.872;12.972;2023-04-25T01:26:42;7.80;99.90
21627;DHT22;10975;47.872;12.972;2023-04-25T01:29:17;7.90;99.90
21627;DHT22;10975;47.872;12.972;2023-04-25T01:31:44;7.90;99.90
21627;DHT22;10975;47.872;12.972;2023-04-25T01:34:11;7.80;99.90
21627;DHT22;10975;47.872;12.972;2023-04-25T01:36:38;7.80;99.90
21627;DHT22;10975;47.872;12.972;2023-04-25T01:39:05;7.80;99.90
21627;DHT22;10975;47.872;12.972;2023-04-25T01:41:32;7.80;99.90
21627;DHT22;10975;47.872;12.972;2023-04-25T01:43:58;7.80;99.90
21627;DHT22;10975;47.872;12.972;2023-04-25T01:46:25;7.80;99.90
21627;DHT22;10975;47.872;12.972;2023-04-25T01:48:52;7.80;99.90
21627;DHT22;10975;47.872;12.972;2023-04-25T01:51:19;7.80;99.90
21627;DHT22;10975;47.872;12.972;2023-04-25T01:53:46;7.70;99.90
21627;DHT22;10975;47.872;12.972;2023-04-25T01:56:13;7.60;99.90
21627;DHT22;10975;47.872;12.972;2023-04-25T01:58:39;7.60;99.90
21627;DHT22;10975;47.872;12.972;2023-04-25T02:01:06;7.60;99.90
21627;DHT22;10975;47.872;12.972;2023-04-25T02:03:34;7.50;99.90
21627;DHT22;10975;47.872;12.972;2023-04-25T02:06:01;7.60;99.90
21627;DHT22;10975;47.872;12.972;2023-04-25T02:08:27;7.50;99.90
21627;DHT22;10975;47.872;12.972;2023-04-25T02:10:54;7.50;99.90
21627;DHT22;10975;47.872;12.972;2023-04-25T02:13:21;7.60;99.90
21627;DHT22;10975;47.872;12.972;2023-04-25T02:15:48;7.50;99.90
21627;DHT22;10975;47.872;12.972;2023-04-25T02:18:15;7.50;99.90
21627;DHT22;10975;47.872;12.972;2023-04-25T02:20:45;7.50;99.90
21627;DHT22;10975;47.872;12.972;2023-04-25T02:23:11;7.50;99.90
21627;DHT22;10975;47.872;12.972;2023-04-25T02:25:38;7.60;99.90
21627;DHT22;10975;47.872;12.972;2023-04-25T02:28:05;7.60;99.90
21627;DHT22;10975;47.872;12.972;2023-04-25T02:30:31;7.60;99.90
21627;DHT22;10975;47.872;12.972;2023-04-25T02:32:58;7.70;99.90
21627;DHT22;10975;47.872;12.972;2023-04-25T02:35:25;7.70;99.90
21627;DHT22;10975;47.872;12.972;2023-04-25T02:37:52;7.70;99.90
21627;DHT22;10975;47.872;12.972;2023-04-25T02:40:19;7.70;99.90
21627;DHT22;10975;47.872;12.972;2023-04-25T02:42:46;7.70;99.90
21627;DHT22;10975;47.872;12.972;2023-04-25T02:45:12;7.80;99.90
21627;DHT22;10975;47.872;12.972;2023-04-25T02:47:39;7.90;99.90
21627;DHT22;10975;47.872;12.972;2023-04-25T02:50:06;7.90;99.90
21627;DHT22;10975;47.872;12.972;2023-04-25T02:52:33;7.90;99.90
21627;DHT22;10975;47.872;12.972;2023-04-25T02:54:59;7.80;99.90
21627;DHT22;10975;47.872;12.972;2023-04-25T02:57:26;7.80;99.90
21627;DHT22;10975;47.872;12.972;2023-04-25T02:59:53;7.80;99.90
21627;DHT22;10975;47.872;12.972;2023-04-25T03:02:19;7.70;99.90
21627;DHT22;10975;47.872;12.972;2023-04-25T03:04:47;7.70;99.90
21627;DHT22;10975;47.872;12.972;2023-04-25T03:07:14;7.70;99.90
21627;DHT22;10975;47.872;12.972;2023-04-25T03:09:41;7.60;99.90
21627;DHT22;10975;47.872;12.972;2023-04-25T03:12:08;7.60;99.90
21627;DHT22;10975;47.872;12.972;2023-04-25T03:14:34;7.70;99.90
21627;DHT22;10975;47.872;12.972;2023-04-25T03:17:01;7.70;99.90
21627;DHT22;10975;47.872;12.972;2023-04-25T03:19:28;7.70;99.90
21627;DHT22;10975;47.872;12.972;2023-04-25T03:21:55;7.70;99.90
21627;DHT22;10975;47.872;12.972;2023-04-25T03:24:21;7.80;99.90
21627;DHT22;10975;47.872;12.972;2023-04-25T03:26:48;7.80;99.90
21627;DHT22;10975;47.872;12.972;2023-04-25T03:29:15;7.80;99.90
21627;DHT22;10975;47.872;12.972;2023-04-25T03:31:41;7.70;99.90
21627;DHT22;10975;47.872;12.972;2023-04-25T03:34:08;7.70;99.90
21627;DHT22;10975;47.872;12.972;2023-04-25T03:36:35;7.70;99.90
21627;DHT22;10975;47.872;12.972;2023-04-25T03:39:01;7.70;99.90
21627;DHT22;10975;47.872;12.972;2023-04-25T03:41:28;7.70;99.90
21627;DHT22;10975;47.872;12.972;2023-04-25T03:43:56;7.70;99.90
21627;DHT22;10975;47.872;12.972;2023-04-25T03:46:22;7.80;99.90
21627;DHT22;10975;47.872;12.972;2023-04-25T03:48:49;7.80;99.90
21627;DHT22;10975;47.872;12.972;2023-04-25T03:51:16;7.90;99.90
21627;DHT22;10975;47.872;12.972;2023-04-25T03:53:43;7.90;99.90
21627;DHT22;10975;47.872;12.972;2023-04-25T03:56:09;7.90;99.90
21627;DHT22;10975;47.872;12.972;2023-04-25T03:58:36;7.90;99.90
21627;DHT22;10975;47.872;12.972;2023-04-25T04:01:03;7.90;99.90
21627;DHT22;10975;47.872;12.972;2023-04-25T04:03:34;7.90;99.90
21627;DHT22;10975;47.872;12.972;2023-04-25T04:06:06;7.90;99.90
21627;DHT22;10975;47.872;12.972;2023-04-25T04:08:33;7.90;99.90
21627;DHT22;10975;47.872;12.972;2023-04-25T04:11:00;7.80;99.90
21627;DHT22;10975;47.872;12.972;2023-04-25T04:13:27;7.90;99.90
21627;DHT22;10975;47.872;12.972;2023-04-25T04:15:53;7.80;99.90
21627;DHT22;10975;47.872;12.972;2023-04-25T04:18:20;7.70;99.90
21627;DHT22;10975;47.872;12.972;2023-04-25T04:20:47;7.70;99.90
21627;DHT22;10975;47.872;12.972;2023-04-25T04:23:14;7.70;99.90
21627;DHT22;10975;47.872;12.972;2023-04-25T04:25:41;7.70;99.90
21627;DHT22;10975;47.872;12.972;2023-04-25T04:28:08;7.80;99.90
21627;DHT22;10975;47.872;12.972;2023-04-25T04:30:34;7.90;99.90
21627;DHT22;10975;47.872;12.972;2023-04-25T04:33:04;8.00;99.90
21627;DHT22;10975;47.872;12.972;2023-04-25T04:35:30;8.00;99.90
21627;DHT22;10975;47.872;12.972;2023-04-25T04:37:57;8.10;99.90
21627;DHT22;10975;47.872;12.972;2023-04-25T04:40:24;8.10;99.90
21627;DHT22;10975;47.872;12.972;2023-04-25T04:42:51;8.10;99.90
21627;DHT22;10975;47.872;12.972;2023-04-25T04:45:19;8.10;99.90
21627;DHT22;10975;47.872;12.972;2023-04-25T04:47:46;8.10;99.90
21627;DHT22;10975;47.872;12.972;2023-04-25T04:50:15;8.20;99.90
21627;DHT22;10975;47.872;12.972;2023-04-25T04:52:42;8.10;99.90
21627;DHT22;10975;47.872;12.972;2023-04-25T04:55:09;8.10;99.90
21627;DHT22;10975;47.872;12.972;2023-04-25T04:57:36;8.10;99.90
21627;DHT22;10975;47.872;12.972;2023-04-25T05:00:03;8.00;99.90
21627;DHT22;10975;47.872;12.972;2023-04-25T05:02:37;8.00;99.90
21627;DHT22;10975;47.872;12.972;2023-04-25T05:05:05;7.90;99.90
21627;DHT22;10975;47.872;12.972;2023-04-25T05:07:32;8.00;99.90
21627;DHT22;10975;47.872;12.972;2023-04-25T05:09:58;8.10;99.90
21627;DHT22;10975;47.872;12.972;2023-04-25T05:12:25;8.10;99.90
21627;DHT22;10975;47.872;12.972;2023-04-25T05:14:52;8.10;99.90
21627;DHT22;10975;47.872;12.972;2023-04-25T05:17:18;8.10;99.90
21627;DHT22;10975;47.872;12.972;2023-04-25T05:19:45;8.20;99.90
21627;DHT22;10975;47.872;12.972;2023-04-25T05:22:12;8.20;99.90
21627;DHT22;10975;47.872;12.972;2023-04-25T05:24:39;8.20;99.90
21627;DHT22;10975;47.872;12.972;2023-04-25T05:27:05;8.30;99.90
21627;DHT22;10975;47.872;12.972;2023-04-25T05:29:32;8.20;99.90
21627;DHT22;10975;47.872;12.972;2023-04-25T05:31:59;8.30;99.90
21627;DHT22;10975;47.872;12.972;2023-04-25T05:34:26;8.60;99.90
21627;DHT22;10975;47.872;12.972;2023-04-25T05:36:53;8.70;99.90
21627;DHT22;10975;47.872;12.972;2023-04-25T05:39:19;8.80;99.90
21627;DHT22;10975;47.872;12.972;2023-04-25T05:41:47;8.60;99.90
21627;DHT22;10975;47.872;12.972;2023-04-25T05:44:13;8.60;99.90
21627;DHT22;10975;47.872;12.972;2023-04-25T05:46:42;8.60;99.90
21627;DHT22;10975;47.872;12.972;2023-04-25T05:49:09;8.60;99.90
21627;DHT22;10975;47.872;12.972;2023-04-25T05:51:35;8.60;99.90
21627;DHT22;10975;47.872;12.972;2023-04-25T05:54:02;8.70;99.90
21627;DHT22;10975;47.872;12.972;2023-04-25T05:56:29;8.70;99.90
21627;DHT22;10975;47.872;12.972;2023-04-25T05:58:56;8.80;99.90
21627;DHT22;10975;47.872;12.972;2023-04-25T06:01:23;8.90;99.90
21627;DHT22;10975;47.872;12.972;2023-04-25T06:03:49;8.90;99.90
21627;DHT22;10975;47.872;12.972;2023-04-25T06:06:18;9.00;99.90
21627;DHT22;10975;47.872;12.972;2023-04-25T06:08:45;9.00;99.90
21627;DHT22;10975;47.872;12.972;2023-04-25T06:11:12;9.00;99.90
21627;DHT22;10975;47.872;12.972;2023-04-25T06:13:39;9.10;99.90
21627;DHT22;10975;47.872;12.972;2023-04-25T06:16:05;9.10;99.90
21627;DHT22;10975;47.872;12.972;2023-04-25T06:18:32;9.20;99.90
21627;DHT22;10975;47.872;12.972;2023-04-25T06:20:59;9.10;99.90
21627;DHT22;10975;47.872;12.972;2023-04-25T06:23:26;9.10;99.90
21627;DHT22;10975;47.872;12.972;2023-04-25T06:25:52;9.20;99.90
21627;DHT22;10975;47.872;12.972;2023-04-25T06:28:19;9.20;99.90
21627;DHT22;10975;47.872;12.972;2023-04-25T06:30:48;9.20;99.90
21627;DHT22;10975;47.872;12.972;2023-04-25T06:33:15;9.20;99.90
21627;DHT22;10975;47.872;12.972;2023-04-25T06:35:42;9.10;99.90
21627;DHT22;10975;47.872;12.972;2023-04-25T06:38:08;9.00;99.90
21627;DHT22;10975;47.872;12.972;2023-04-25T06:40:35;8.90;99.90
21627;DHT22;10975;47.872;12.972;2023-04-25T06:43:02;8.80;99.90
21627;DHT22;10975;47.872;12.972;2023-04-25T06:45:28;8.80;99.90
21627;DHT22;10975;47.872;12.972;2023-04-25T06:47:55;8.80;99.90
21627;DHT22;10975;47.872;12.972;2023-04-25T06:50:22;8.90;99.90
21627;DHT22;10975;47.872;12.972;2023-04-25T06:52:49;9.10;99.90
21627;DHT22;10975;47.872;12.972;2023-04-25T06:55:16;9.10;99.90
21627;DHT22;10975;47.872;12.972;2023-04-25T06:57:42;9.10;99.90
21627;DHT22;10975;47.872;12.972;2023-04-25T07:00:09;9.10;99.90
21627;DHT22;10975;47.872;12.972;2023-04-25T07:02:36;9.30;99.90
21627;DHT22;10975;47.872;12.972;2023-04-25T07:05:03;9.60;99.90
21627;DHT22;10975;47.872;12.972;2023-04-25T07:07:30;9.90;99.90
21627;DHT22;10975;47.872;12.972;2023-04-25T07:09:57;10.00;99.90
21627;DHT22;10975;47.872;12.972;2023-04-25T07:12:24;10.00;99.90
21627;DHT22;10975;47.872;12.972;2023-04-25T07:14:50;10.10;99.90
21627;DHT22;10975;47.872;12.972;2023-04-25T07:17:17;10.20;99.90
21627;DHT22;10975;47.872;12.972;2023-04-25T07:19:44;10.30;99.90
21627;DHT22;10975;47.872;12.972;2023-04-25T07:22:11;10.30;99.90
21627;DHT22;10975;47.872;12.972;2023-04-25T07:24:38;10.30;99.90
21627;DHT22;10975;47.872;12.972;2023-04-25T07:27:05;10.40;99.90
21627;DHT22;10975;47.872;12.972;2023-04-25T07:29:32;10.40;99.90
21627;DHT22;10975;47.872;12.972;2023-04-25T07:32:02;10.30;99.90
21627;DHT22;10975;47.872;12.972;2023-04-25T07:34:29;10.20;99.90
21627;DHT22;10975;47.872;12.972;2023-04-25T07:36:56;10.40;99.90
21627;DHT22;10975;47.872;12.972;2023-04-25T07:39:23;10.40;99.90
21627;DHT22;10975;47.872;12.972;2023-04-25T07:41:50;10.70;99.90
21627;DHT22;10975;47.872;12.972;2023-04-25T07:44:20;10.80;99.90
21627;DHT22;10975;47.872;12.972;2023-04-25T07:46:47;11.00;99.90
21627;DHT22;10975;47.872;12.972;2023-04-25T07:49:13;11.20;99.90
21627;DHT22;10975;47.872;12.972;2023-04-25T07:51:40;11.20;99.90
21627;DHT22;10975;47.872;12.972;2023-04-25T07:54:12;11.00;99.90
21627;DHT22;10975;47.872;12.972;2023-04-25T07:56:38;10.90;99.90
21627;DHT22;10975;47.872;12.972;2023-04-25T07:59:18;10.90;99.90
21627;DHT22;10975;47.872;12.972;2023-04-25T08:01:45;10.80;99.90
21627;DHT22;10975;47.872;12.972;2023-04-25T08:04:11;10.90;99.90
21627;DHT22;10975;47.872;12.972;2023-04-25T08:06:38;10.80;99.90
21627;DHT22;10975;47.872;12.972;2023-04-25T08:09:06;10.90;99.90
21627;DHT22;10975;47.872;12.972;2023-04-25T08:11:32;11.10;99.90
21627;DHT22;10975;47.872;12.972;2023-04-25T08:13:59;11.20;99.90
21627;DHT22;10975;47.872;12.972;2023-04-25T08:16:26;11.30;99.90
21627;DHT22;10975;47.872;12.972;2023-04-25T08:18:53;11.50;99.90
21627;DHT22;10975;47.872;12.972;2023-04-25T08:21:19;11.60;99.90
21627;DHT22;10975;47.872;12.972;2023-04-25T08:23:46;11.80;99.90
21627;DHT22;10975;47.872;12.972;2023-04-25T08:26:13;11.70;99.90
21627;DHT22;10975;47.872;12.972;2023-04-25T08:28:40;11.90;99.90
21627;DHT22;10975;47.872;12.972;2023-04-25T08:31:06;12.00;99.90
21627;DHT22;10975;47.872;12.972;2023-04-25T08:33:33;12.20;99.90
21627;DHT22;10975;47.872;12.972;2023-04-25T08:36:02;12.50;99.90
21627;DHT22;10975;47.872;12.972;2023-04-25T08:38:29;12.40;99.90
21627;DHT22;10975;47.872;12.972;2023-04-25T08:40:56;12.50;99.90
21627;DHT22;10975;47.872;12.972;2023-04-25T08:43:23;12.30;99.90
21627;DHT22;10975;47.872;12.972;2023-04-25T08:45:49;12.30;99.90
21627;DHT22;10975;47.872;12.972;2023-04-25T08:48:18;12.50;99.90
21627;DHT22;10975;47.872;12.972;2023-04-25T08:50:48;12.70;99.90
21627;DHT22;10975;47.872;12.972;2023-04-25T08:53:16;13.20;99.90
21627;DHT22;10975;47.872;12.972;2023-04-25T08:55:46;12.90;99.90
21627;DHT22;10975;47.872;12.972;2023-04-25T08:58:13;12.60;99.90
21627;DHT22;10975;47.872;12.972;2023-04-25T09:00:40;12.50;99.90
21627;DHT22;10975;47.872;12.972;2023-04-25T09:03:07;12.70;99.90
21627;DHT22;10975;47.872;12.972;2023-04-25T09:05:36;12.70;99.90
21627;DHT22;10975;47.872;12.972;2023-04-25T09:08:04;12.50;99.90
21627;DHT22;10975;47.872;12.972;2023-04-25T09:10:31;12.20;99.90
21627;DHT22;10975;47.872;12.972;2023-04-25T09:13:04;11.90;99.90
21627;DHT22;10975;47.872;12.972;2023-04-25T09:15:32;11.60;99.90
21627;DHT22;10975;47.872;12.972;2023-04-25T09:17:59;11.40;99.90
21627;DHT22;10975;47.872;12.972;2023-04-25T09:20:26;11.30;99.90
21627;DHT22;10975;47.872;12.972;2023-04-25T09:23:03;11.30;99.90
21627;DHT22;10975;47.872;12.972;2023-04-25T09:25:34;11.60;99.90
21627;DHT22;10975;47.872;12.972;2023-04-25T09:28:03;12.00;99.90
21627;DHT22;10975;47.872;12.972;2023-04-25T09:30:31;12.30;99.90
21627;DHT22;10975;47.872;12.972;2023-04-25T09:33:05;12.20;99.90
21627;DHT22;10975;47.872;12.972;2023-04-25T09:35:39;12.30;99.90
21627;DHT22;10975;47.872;12.972;2023-04-25T09:38:07;12.30;99.90
21627;DHT22;10975;47.872;12.972;2023-04-25T09:40:33;12.40;99.90
21627;DHT22;10975;47.872;12.972;2023-04-25T09:43:00;12.20;99.90
21627;DHT22;10975;47.872;12.972;2023-04-25T09:45:29;12.20;99.90
21627;DHT22;10975;47.872;12.972;2023-04-25T09:47:56;12.30;99.90
21627;DHT22;10975;47.872;12.972;2023-04-25T09:50:24;12.10;99.90
21627;DHT22;10975;47.872;12.972;2023-04-25T09:53:04;12.00;99.90
21627;DHT22;10975;47.872;12.972;2023-04-25T09:55:32;11.70;99.90
21627;DHT22;10975;47.872;12.972;2023-04-25T09:58:03;12.00;99.90
21627;DHT22;10975;47.872;12.972;2023-04-25T10:00:30;12.10;99.90
21627;DHT22;10975;47.872;12.972;2023-04-25T10:02:57;12.10;99.90
21627;DHT22;10975;47.872;12.972;2023-04-25T10:05:27;12.60;99.90
21627;DHT22;10975;47.872;12.972;2023-04-25T10:07:55;12.70;99.90
21627;DHT22;10975;47.872;12.972;2023-04-25T10:10:22;12.70;99.90
21627;DHT22;10975;47.872;12.972;2023-04-25T10:12:52;12.70;99.90
21627;DHT22;10975;47.872;12.972;2023-04-25T10:15:19;12.80;99.90
21627;DHT22;10975;47.872;12.972;2023-04-25T10:17:47;13.00;99.90
21627;DHT22;10975;47.872;12.972;2023-04-25T10:20:14;12.90;99.90
21627;DHT22;10975;47.872;12.972;2023-04-25T10:22:43;13.00;99.90
21627;DHT22;10975;47.872;12.972;2023-04-25T10:25:10;13.10;99.90
21627;DHT22;10975;47.872;12.972;2023-04-25T10:27:38;12.80;99.90
21627;DHT22;10975;47.872;12.972;2023-04-25T10:30:09;12.70;99.90
21627;DHT22;10975;47.872;12.972;2023-04-25T10:32:38;12.50;99.90
21627;DHT22;10975;47.872;12.972;2023-04-25T10:37:37;12.90;99.90
21627;DHT22;10975;47.872;12.972;2023-04-25T10:40:09;12.90;99.90
21627;DHT22;10975;47.872;12.972;2023-04-25T10:42:36;13.00;99.90
21627;DHT22;10975;47.872;12.972;2023-04-25T10:45:06;12.90;99.90
21627;DHT22;10975;47.872;12.972;2023-04-25T10:47:34;12.70;99.90
21627;DHT22;10975;47.872;12.972;2023-04-25T10:50:05;12.40;99.90
21627;DHT22;10975;47.872;12.972;2023-04-25T10:52:32;12.30;99.90
21627;DHT22;10975;47.872;12.972;2023-04-25T10:54:59;12.40;99.90
21627;DHT22;10975;47.872;12.972;2023-04-25T11:00:06;12.90;99.90
21627;DHT22;10975;47.872;12.972;2023-04-25T11:02:42;13.20;99.90
21627;DHT22;10975;47.872;12.972;2023-04-25T11:07:58;13.70;99.90
21627;DHT22;10975;47.872;12.972;2023-04-25T11:10:33;13.40;99.90
21627;DHT22;10975;47.872;12.972;2023-04-25T11:13:02;12.90;99.90
21627;DHT22;10975;47.872;12.972;2023-04-25T11:15:28;12.50;99.90
21627;DHT22;10975;47.872;12.972;2023-04-25T11:17:56;12.20;99.90
21627;DHT22;10975;47.872;12.972;2023-04-25T11:20:25;12.30;99.90
21627;DHT22;10975;47.872;12.972;2023-04-25T11:22:52;11.60;99.90
21627;DHT22;10975;47.872;12.972;2023-04-25T11:25:19;10.90;99.90
21627;DHT22;10975;47.872;12.972;2023-04-25T11:27:50;10.30;99.90
21627;DHT22;10975;47.872;12.972;2023-04-25T11:30:20;10.20;99.90
21627;DHT22;10975;47.872;12.972;2023-04-25T11:32:47;10.10;99.90
21627;DHT22;10975;47.872;12.972;2023-04-25T11:35:14;10.10;99.90
21627;DHT22;10975;47.872;12.972;2023-04-25T11:37:42;10.10;99.90
21627;DHT22;10975;47.872;12.972;2023-04-25T11:40:09;10.20;99.90
21627;DHT22;10975;47.872;12.972;2023-04-25T11:42:37;10.30;99.90
21627;DHT22;10975;47.872;12.972;2023-04-25T11:45:05;10.50;99.90
21627;DHT22;10975;47.872;12.972;2023-04-25T11:47:32;10.80;99.90
21627;DHT22;10975;47.872;12.972;2023-04-25T11:49:59;10.90;99.90
21627;DHT22;10975;47.872;12.972;2023-04-25T11:53:00;11.10;99.90
21627;DHT22;10975;47.872;12.972;2023-04-25T11:55:20;11.30;99.90
21627;DHT22;10975;47.872;12.972;2023-04-25T11:57:47;11.50;99.90
21627;DHT22;10975;47.872;12.972;2023-04-25T12:00:19;11.60;99.90
21627;DHT22;10975;47.872;12.972;2023-04-25T12:02:47;11.90;99.90
21627;DHT22;10975;47.872;12.972;2023-04-25T12:05:14;12.00;99.90
21627;DHT22;10975;47.872;12.972;2023-04-25T12:08:09;12.10;99.90
21627;DHT22;10975;47.872;12.972;2023-04-25T12:10:36;12.30;99.90
21627;DHT22;10975;47.872;12.972;2023-04-25T12:13:17;12.60;99.90
21627;DHT22;10975;47.872;12.972;2023-04-25T12:15:44;13.10;99.90
21627;DHT22;10975;47.872;12.972;2023-04-25T12:18:11;13.30;99.90
21627;DHT22;10975;47.872;12.972;2023-04-25T12:20:37;13.40;99.90
21627;DHT22;10975;47.872;12.972;2023-04-25T12:23:07;13.50;99.90
21627;DHT22;10975;47.872;12.972;2023-04-25T12:28:14;13.00;99.90
21627;DHT22;10975;47.872;12.972;2023-04-25T12:33:24;12.70;99.90
21627;DHT22;10975;47.872;12.972;2023-04-25T12:35:52;12.60;99.90
21627;DHT22;10975;47.872;12.972;2023-04-25T12:38:22;12.60;99.90
21627;DHT22;10975;47.872;12.972;2023-04-25T12:40:49;12.70;99.90
21627;DHT22;10975;47.872;12.972;2023-04-25T12:43:16;12.80;99.90
21627;DHT22;10975;47.872;12.972;2023-04-25T12:45:53;13.00;99.90
21627;DHT22;10975;47.872;12.972;2023-04-25T12:48:20;13.30;99.90
21627;DHT22;10975;47.872;12.972;2023-04-25T12:50:47;13.60;99.90
21627;DHT22;10975;47.872;12.972;2023-04-25T12:53:16;13.80;99.90
21627;DHT22;10975;47.872;12.972;2023-04-25T12:55:42;13.70;99.90
21627;DHT22;10975;47.872;12.972;2023-04-25T12:58:09;13.90;99.90
21627;DHT22;10975;47.872;12.972;2023-04-25T13:00:36;13.80;99.90
21627;DHT22;10975;47.872;12.972;2023-04-25T13:03:03;13.50;99.90
21627;DHT22;10975;47.872;12.972;2023-04-25T13:05:31;13.40;99.90
21627;DHT22;10975;47.872;12.972;2023-04-25T13:07:58;13.30;99.90
21627;DHT22;10975;47.872;12.972;2023-04-25T13:10:25;13.00;99.90
21627;DHT22;10975;47.872;12.972;2023-04-25T13:12:52;12.50;99.90
21627;DHT22;10975;47.872;12.972;2023-04-25T13:15:19;12.10;99.90
21627;DHT22;10975;47.872;12.972;2023-04-25T13:17:46;10.80;99.90
21627;DHT22;10975;47.872;12.972;2023-04-25T13:20:13;9.70;99.90
21627;DHT22;10975;47.872;12.972;2023-04-25T13:22:41;9.20;99.90
21627;DHT22;10975;47.872;12.972;2023-04-25T13:25:08;8.70;99.90
21627;DHT22;10975;47.872;12.972;2023-04-25T13:27:36;8.40;99.90
21627;DHT22;10975;47.872;12.972;2023-04-25T13:30:03;8.20;99.90
21627;DHT22;10975;47.872;12.972;2023-04-25T13:32:34;8.20;99.90
21627;DHT22;10975;47.872;12.972;2023-04-25T13:35:06;7.90;99.90
21627;DHT22;10975;47.872;12.972;2023-04-25T13:37:36;7.80;99.90
21627;DHT22;10975;47.872;12.972;2023-04-25T13:40:04;7.70;99.90
21627;DHT22;10975;47.872;12.972;2023-04-25T13:42:32;7.70;99.90
21627;DHT22;10975;47.872;12.972;2023-04-25T13:44:58;7.60;99.90
21627;DHT22;10975;47.872;12.972;2023-04-25T13:47:25;7.50;99.90
21627;DHT22;10975;47.872;12.972;2023-04-25T13:49:52;7.50;99.90
21627;DHT22;10975;47.872;12.972;2023-04-25T13:52:19;7.60;99.90
21627;DHT22;10975;47.872;12.972;2023-04-25T13:54:46;7.60;99.90
21627;DHT22;10975;47.872;12.972;2023-04-25T13:57:12;7.60;99.90
21627;DHT22;10975;47.872;12.972;2023-04-25T13:59:39;7.70;99.90
21627;DHT22;10975;47.872;12.972;2023-04-25T14:02:07;7.90;99.90
21627;DHT22;10975;47.872;12.972;2023-04-25T14:04:33;8.00;99.90
21627;DHT22;10975;47.872;12.972;2023-04-25T14:07:00;8.10;99.90
21627;DHT22;10975;47.872;12.972;2023-04-25T14:09:28;8.20;99.90
21627;DHT22;10975;47.872;12.972;2023-04-25T14:11:55;8.30;99.90
21627;DHT22;10975;47.872;12.972;2023-04-25T14:14:22;8.40;99.90
21627;DHT22;10975;47.872;12.972;2023-04-25T14:16:50;8.60;99.90
21627;DHT22;10975;47.872;12.972;2023-04-25T14:19:17;9.00;99.90
21627;DHT22;10975;47.872;12.972;2023-04-25T14:21:47;9.40;99.90
21627;DHT22;10975;47.872;12.972;2023-04-25T14:24:14;9.50;99.90
21627;DHT22;10975;47.872;12.972;2023-04-25T14:26:41;9.60;99.90
21627;DHT22;10975;47.872;12.972;2023-04-25T14:29:08;9.60;99.90
21627;DHT22;10975;47.872;12.972;2023-04-25T14:31:38;9.70;99.90
21627;DHT22;10975;47.872;12.972;2023-04-25T14:34:06;10.00;99.90
21627;DHT22;10975;47.872;12.972;2023-04-25T14:36:33;10.30;99.90
21627;DHT22;10975;47.872;12.972;2023-04-25T14:39:00;10.50;99.90
21627;DHT22;10975;47.872;12.972;2023-04-25T14:41:27;10.60;99.90
21627;DHT22;10975;47.872;12.972;2023-04-25T14:43:54;10.60;99.90
21627;DHT22;10975;47.872;12.972;2023-04-25T14:46:22;10.60;99.90
21627;DHT22;10975;47.872;12.972;2023-04-25T14:48:49;10.50;99.90
21627;DHT22;10975;47.872;12.972;2023-04-25T14:51:16;10.50;99.90
21627;DHT22;10975;47.872;12.972;2023-04-25T14:53:43;10.40;99.90
21627;DHT22;10975;47.872;12.972;2023-04-25T14:56:10;10.30;99.90
21627;DHT22;10975;47.872;12.972;2023-04-25T14:58:36;10.10;99.90
21627;DHT22;10975;47.872;12.972;2023-04-25T15:01:05;9.90;99.90
21627;DHT22;10975;47.872;12.972;2023-04-25T15:03:33;9.80;99.90
21627;DHT22;10975;47.872;12.972;2023-04-25T15:06:00;9.70;99.90
21627;DHT22;10975;47.872;12.972;2023-04-25T15:08:27;9.40;99.90
21627;DHT22;10975;47.872;12.972;2023-04-25T15:10:54;9.20;99.90
21627;DHT22;10975;47.872;12.972;2023-04-25T15:13:20;9.10;99.90
21627;DHT22;10975;47.872;12.972;2023-04-25T15:15:47;9.10;99.90
21627;DHT22;10975;47.872;12.972;2023-04-25T15:18:18;9.10;99.90
21627;DHT22;10975;47.872;12.972;2023-04-25T15:20:45;9.10;99.90
21627;DHT22;10975;47.872;12.972;2023-04-25T15:23:11;9.20;99.90
21627;DHT22;10975;47.872;12.972;2023-04-25T15:25:38;9.20;99.90
21627;DHT22;10975;47.872;12.972;2023-04-25T15:28:05;9.30;99.90
21627;DHT22;10975;47.872;12.972;2023-04-25T15:30:31;9.50;99.90
21627;DHT22;10975;47.872;12.972;2023-04-25T15:32:58;9.80;99.90
21627;DHT22;10975;47.872;12.972;2023-04-25T15:35:25;9.80;99.90
21627;DHT22;10975;47.872;12.972;2023-04-25T15:37:52;9.80;99.90
21627;DHT22;10975;47.872;12.972;2023-04-25T15:40:19;9.80;99.90